createdAt,value
2022-10-22T00:02:02.373Z,99651.75
2022-10-22T00:04:34.499Z,99651.78
2022-10-22T00:07:04.344Z,99658.53
2022-10-22T00:09:32.939Z,99659.44
2022-10-22T00:12:01.596Z,99662.81
2022-10-22T00:14:30.588Z,99653.47
2022-10-22T00:17:01.243Z,99656.88
2022-10-22T00:19:31.346Z,99659.34
2022-10-22T00:21:59.985Z,99658.53
2022-10-22T00:24:28.686Z,99649.16
2022-10-22T00:26:57.326Z,99646.63
2022-10-22T00:29:26.014Z,99643.22
2022-10-22T00:34:24.143Z,99661.91
2022-10-22T00:36:54.589Z,99680.59
2022-10-22T00:39:25.977Z,99677.19
2022-10-22T00:41:57.537Z,99668.69
2022-10-22T00:44:47.996Z,99672.94
2022-10-22T00:47:17.978Z,99668.66
2022-10-22T00:49:47.977Z,99671.22
2022-10-22T00:52:18.038Z,99655.06
2022-10-22T00:54:46.898Z,99644.06
2022-10-22T00:57:16.966Z,99636.41
2022-10-22T00:59:45.787Z,99627.88
2022-10-22T01:02:14.934Z,99636.38
2022-10-22T01:04:43.887Z,99616.00
2022-10-22T01:07:19.504Z,99626.19
2022-10-22T01:09:57.406Z,99635.53
2022-10-22T01:12:37.866Z,99643.16
2022-10-22T01:15:18.023Z,99643.16
2022-10-22T01:17:55.165Z,99644.84
2022-10-22T01:20:42.887Z,99650.78
2022-10-22T01:23:26.995Z,99650.78
2022-10-22T01:26:04.844Z,99646.53
2022-10-22T01:28:51.074Z,99640.59
2022-10-22T01:31:23.506Z,99636.34
2022-10-22T01:33:54.670Z,99633.75
2022-10-22T01:36:23.734Z,99635.44
2022-10-22T01:38:53.578Z,99638.88
2022-10-22T01:41:22.374Z,99638.00
2022-10-22T01:43:52.546Z,99631.22
2022-10-22T01:46:23.396Z,99619.34
2022-10-22T01:49:13.378Z,99615.06
2022-10-22T01:51:56.934Z,99610.78
2022-10-22T01:54:34.887Z,99617.53
2022-10-22T01:57:12.648Z,99615.78
2022-10-22T01:59:52.950Z,99610.72
2022-10-22T02:02:35.763Z,99614.06
2022-10-22T02:05:10.238Z,99615.72
2022-10-22T02:07:45.635Z,99620.78
2022-10-22T02:10:15.734Z,99620.78
2022-10-22T02:12:47.596Z,99626.69
2022-10-22T02:15:22.184Z,99603.72
2022-10-22T02:17:52.663Z,99632.56
2022-10-22T02:20:26.303Z,99634.28
2022-10-22T02:22:55.514Z,99622.41
2022-10-22T02:25:26.404Z,99622.41
2022-10-22T02:28:04.132Z,99611.28
2022-10-22T02:30:37.307Z,99627.38
2022-10-22T02:33:11.353Z,99634.09
2022-10-22T02:35:42.444Z,99634.94
2022-10-22T02:38:13.655Z,99639.16
2022-10-22T02:40:43.313Z,99628.19
2022-10-22T02:43:11.784Z,99625.59
2022-10-22T02:45:42.289Z,99628.06
2022-10-22T02:48:10.909Z,99615.41
2022-10-22T02:50:39.618Z,99599.31
2022-10-22T02:53:08.315Z,99592.59
2022-10-22T02:55:37.346Z,99583.25
2022-10-22T02:58:06.797Z,99584.94
2022-10-22T03:00:35.354Z,99584.88
2022-10-22T03:03:05.417Z,99589.94
2022-10-22T03:05:34.120Z,99593.34
2022-10-22T03:08:02.776Z,99583.19
2022-10-22T03:10:31.376Z,99578.13
2022-10-22T03:12:59.935Z,99591.72
2022-10-22T03:18:02.504Z,99588.38
2022-10-22T03:20:32.535Z,99583.28
2022-10-22T03:23:02.506Z,99573.94
2022-10-22T03:25:35.407Z,99578.16
2022-10-22T03:28:08.685Z,99584.94
2022-10-22T03:30:38.276Z,99584.13
2022-10-22T03:33:06.814Z,99591.75
2022-10-22T03:35:44.246Z,99586.66
2022-10-22T03:38:14.693Z,99584.94
2022-10-22T03:40:46.807Z,99576.44
2022-10-22T03:43:15.683Z,99580.69
2022-10-22T03:45:44.279Z,99582.38
2022-10-22T03:48:13.224Z,99588.28
2022-10-22T03:50:43.245Z,99591.69
2022-10-22T03:53:11.817Z,99589.97
2022-10-22T03:55:42.545Z,99589.97
2022-10-22T03:58:11.527Z,99588.28
2022-10-22T04:00:40.031Z,99591.69
2022-10-22T04:03:08.657Z,99582.31
2022-10-22T04:05:37.179Z,99584.84
2022-10-22T04:08:07.378Z,99593.34
2022-10-22T04:10:36.083Z,99582.34
2022-10-22T04:13:04.774Z,99589.09
2022-10-22T04:15:33.457Z,99595.00
2022-10-22T04:18:02.108Z,99593.25
2022-10-22T04:20:30.647Z,99591.47
2022-10-22T04:22:59.222Z,99592.22
2022-10-22T04:25:29.313Z,99582.88
2022-10-22T04:27:57.939Z,99563.41
2022-10-22T04:30:26.447Z,99563.41
2022-10-22T04:32:55.057Z,99562.56
2022-10-22T04:37:57.318Z,99552.19
2022-10-22T04:40:25.805Z,99569.19
2022-10-22T04:42:55.796Z,99558.16
2022-10-22T04:45:24.463Z,99565.72
2022-10-22T04:47:53.083Z,99567.44
2022-10-22T04:50:21.647Z,99574.16
2022-10-22T04:52:50.685Z,99559.75
2022-10-22T04:55:19.436Z,99547.00
2022-10-22T04:57:48.065Z,99552.09
2022-10-22T05:00:18.511Z,99542.66
2022-10-22T05:02:51.013Z,99562.25
2022-10-22T05:05:19.697Z,99570.75
2022-10-22T05:07:48.254Z,99569.09
2022-10-22T05:10:16.905Z,99569.16
2022-10-22T05:12:45.569Z,99568.34
2022-10-22T05:15:14.147Z,99558.16
2022-10-22T05:17:44.169Z,99566.66
2022-10-22T05:20:13.260Z,99564.13
2022-10-22T05:22:41.774Z,99578.53
2022-10-22T05:25:12.420Z,99577.72
2022-10-22T05:27:41.374Z,99567.53
2022-10-22T05:30:10.697Z,99572.66
2022-10-22T05:32:39.346Z,99576.91
2022-10-22T05:35:10.116Z,99576.09
2022-10-22T05:37:38.969Z,99577.78
2022-10-22T05:40:26.440Z,99573.44
2022-10-22T05:42:55.763Z,99577.66
2022-10-22T05:45:24.214Z,99577.63
2022-10-22T05:47:52.823Z,99580.19
2022-10-22T05:50:22.883Z,99579.41
2022-10-22T05:52:51.393Z,99579.47
2022-10-22T05:55:19.957Z,99587.03
2022-10-22T05:57:49.625Z,99594.78
2022-10-22T06:00:18.897Z,99603.34
2022-10-22T06:02:51.715Z,99595.78
2022-10-22T06:05:20.438Z,99584.78
2022-10-22T06:07:50.574Z,99600.88
2022-10-22T06:10:21.915Z,99599.13
2022-10-22T06:12:50.966Z,99599.09
2022-10-22T06:15:20.414Z,99575.34
2022-10-22T06:17:49.735Z,99581.34
2022-10-22T06:20:18.488Z,99579.66
2022-10-22T06:22:48.626Z,99576.25
2022-10-22T06:25:19.009Z,99593.22
2022-10-22T06:27:51.779Z,99592.34
2022-10-22T06:30:20.489Z,99602.63
2022-10-22T06:32:48.938Z,99608.63
2022-10-22T06:35:17.648Z,99612.06
2022-10-22T06:37:47.882Z,99624.00
2022-10-22T06:40:16.593Z,99630.06
2022-10-22T06:42:46.505Z,99633.59
2022-10-22T06:45:15.785Z,99627.66
2022-10-22T06:47:44.314Z,99610.72
2022-10-22T06:50:12.992Z,99626.91
2022-10-22T06:52:41.498Z,99613.34
2022-10-22T06:55:10.890Z,99632.03
2022-10-22T06:57:39.634Z,99631.22
2022-10-22T07:00:11.579Z,99632.94
2022-10-22T07:02:40.413Z,99631.25
2022-10-22T07:05:10.288Z,99623.63
2022-10-22T07:07:39.462Z,99615.97
2022-10-22T07:10:09.437Z,99614.28
2022-10-22T07:12:38.413Z,99614.28
2022-10-22T07:15:08.040Z,99620.22
2022-10-22T07:17:38.024Z,99634.66
2022-10-22T07:20:07.667Z,99627.00
2022-10-22T07:22:36.071Z,99605.78
2022-10-22T07:25:07.237Z,99625.34
2022-10-22T07:27:36.462Z,99620.22
2022-10-22T07:30:06.000Z,99615.13
2022-10-22T07:32:34.683Z,99614.28
2022-10-22T07:35:05.050Z,99625.38
2022-10-22T07:37:33.567Z,99631.31
2022-10-22T07:40:03.857Z,99641.50
2022-10-22T07:42:33.042Z,99643.25
2022-10-22T07:45:01.482Z,99648.38
2022-10-22T07:47:30.223Z,99654.31
2022-10-22T07:49:58.890Z,99651.75
2022-10-22T07:52:29.162Z,99648.34
2022-10-22T07:54:57.801Z,99641.47
2022-10-22T07:57:26.443Z,99648.25
2022-10-22T07:59:56.691Z,99639.69
2022-10-22T08:02:25.402Z,99637.94
2022-10-22T08:04:54.052Z,99634.53
2022-10-22T08:07:22.701Z,99630.25
2022-10-22T08:09:52.951Z,99638.69
2022-10-22T08:12:22.125Z,99617.41
2022-10-22T08:14:50.722Z,99620.72
2022-10-22T08:17:19.819Z,99625.81
2022-10-22T08:19:48.257Z,99632.59
2022-10-22T08:22:16.917Z,99634.28
2022-10-22T08:24:45.539Z,99629.94
2022-10-22T08:27:15.710Z,99649.41
2022-10-22T08:29:44.322Z,99647.59
2022-10-22T08:32:13.390Z,99638.97
2022-10-22T08:34:42.050Z,99626.97
2022-10-22T08:37:14.507Z,99621.78
2022-10-22T08:39:44.227Z,99623.47
2022-10-22T08:42:39.797Z,99632.00
2022-10-22T08:45:16.448Z,99635.41
2022-10-22T08:48:09.029Z,99630.94
2022-10-22T08:50:42.398Z,99620.69
2022-10-22T08:53:16.761Z,99617.28
2022-10-22T08:55:46.213Z,99620.69
2022-10-22T08:58:28.599Z,99613.03
2022-10-22T09:01:01.601Z,99615.53
2022-10-22T09:03:47.859Z,99618.00
2022-10-22T09:06:20.249Z,99631.56
2022-10-22T09:08:49.741Z,99626.28
2022-10-22T09:11:26.168Z,99634.56
2022-10-22T09:13:57.870Z,99644.66
2022-10-22T09:16:35.639Z,99654.75
2022-10-22T09:19:14.462Z,99654.56
2022-10-22T09:21:53.248Z,99666.41
2022-10-22T09:24:33.506Z,99662.00
2022-10-22T09:27:03.690Z,99661.00
2022-10-22T09:29:35.381Z,99662.56
2022-10-22T09:32:04.498Z,99671.84
2022-10-22T09:34:34.261Z,99667.41
2022-10-22T09:37:08.240Z,99658.78
2022-10-22T09:39:40.481Z,99660.50
2022-10-22T09:42:13.141Z,99669.91
2022-10-22T09:44:46.346Z,99675.13
2022-10-22T09:47:42.591Z,99676.06
2022-10-22T09:50:22.909Z,99671.81
2022-10-22T09:53:05.669Z,99677.78
2022-10-22T09:55:34.238Z,99681.19
2022-10-22T09:58:02.851Z,99681.19
2022-10-22T10:00:33.081Z,99683.69
2022-10-22T10:03:02.054Z,99672.56
2022-10-22T10:05:33.669Z,99676.81
2022-10-22T10:08:13.697Z,99680.22
2022-10-22T10:10:48.618Z,99671.63
2022-10-22T10:13:32.864Z,99676.75
2022-10-22T10:16:12.884Z,99672.44
2022-10-22T10:18:54.882Z,99663.91
2022-10-22T10:21:32.881Z,99668.16
2022-10-22T10:24:12.392Z,99659.63
2022-10-22T10:26:55.303Z,99662.28
2022-10-22T10:32:28.823Z,99661.53
2022-10-22T10:35:06.099Z,99657.31
2022-10-22T10:37:41.796Z,99663.34
2022-10-22T10:40:28.811Z,99667.66
2022-10-22T10:43:04.124Z,99673.59
2022-10-22T10:45:44.533Z,99671.91
2022-10-22T10:48:40.433Z,99674.53
2022-10-22T10:51:24.792Z,99678.78
2022-10-22T10:54:09.095Z,99677.03
2022-10-22T10:56:43.134Z,99672.81
2022-10-22T10:59:20.692Z,99667.72
2022-10-22T11:02:01.235Z,99664.38
2022-10-22T11:04:51.164Z,99661.09
2022-10-22T11:07:34.101Z,99660.31
2022-10-22T11:10:11.814Z,99655.22
2022-10-22T11:12:49.244Z,99654.41
2022-10-22T11:15:29.078Z,99656.13
2022-10-22T11:18:07.621Z,99656.22
2022-10-22T11:20:47.487Z,99656.34
2022-10-22T11:23:21.634Z,99651.25
2022-10-22T11:25:52.044Z,99663.28
2022-10-22T11:28:27.319Z,99663.38
2022-10-22T11:31:01.786Z,99677.09
2022-10-22T11:33:39.595Z,99668.63
2022-10-22T11:36:12.255Z,99673.81
2022-10-22T11:38:41.005Z,99668.69
2022-10-22T11:41:14.654Z,99672.06
2022-10-22T11:43:57.285Z,99683.19
2022-10-22T11:46:41.595Z,99663.50
2022-10-22T11:49:25.209Z,99662.63
2022-10-22T11:52:24.425Z,99660.91
2022-10-22T11:54:57.956Z,99668.53
2022-10-22T11:57:38.397Z,99676.16
2022-10-22T12:00:14.175Z,99676.09
2022-10-22T12:02:45.531Z,99680.47
2022-10-22T12:05:35.709Z,99673.75
2022-10-22T12:08:17.416Z,99682.38
2022-10-22T12:11:07.775Z,99674.63
2022-10-22T12:14:04.787Z,99675.47
2022-10-22T12:16:56.844Z,99678.88
2022-10-22T12:19:30.588Z,99672.13
2022-10-22T12:22:01.820Z,99664.47
2022-10-22T12:24:40.920Z,99665.31
2022-10-22T12:27:22.348Z,99664.50
2022-10-22T12:29:56.778Z,99670.50
2022-10-22T12:32:34.348Z,99675.66
2022-10-22T12:35:08.134Z,99673.94
2022-10-22T12:37:37.244Z,99673.16
2022-10-22T12:40:19.520Z,99668.09
2022-10-22T12:42:54.129Z,99648.50
2022-10-22T12:45:24.048Z,99661.34
2022-10-22T12:47:57.795Z,99666.44
2022-10-22T12:50:33.128Z,99658.78
2022-10-22T12:53:01.909Z,99657.13
2022-10-22T12:55:35.315Z,99650.34
2022-10-22T12:58:07.429Z,99650.28
2022-10-22T13:00:37.165Z,99645.22
2022-10-22T13:03:08.552Z,99655.47
2022-10-22T13:05:40.139Z,99647.00
2022-10-22T13:08:12.649Z,99660.53
2022-10-22T13:10:51.154Z,99663.91
2022-10-22T13:13:32.109Z,99652.84
2022-10-22T13:16:15.996Z,99645.22
2022-10-22T13:18:45.189Z,99640.16
2022-10-22T13:21:29.215Z,99645.19
2022-10-22T13:24:00.730Z,99640.13
2022-10-22T13:26:36.876Z,99643.59
2022-10-22T13:29:14.869Z,99654.63
2022-10-22T13:31:48.499Z,99662.31
2022-10-22T13:34:21.008Z,99665.78
2022-10-22T13:36:50.359Z,99656.47
2022-10-22T13:39:20.166Z,99659.91
2022-10-22T13:41:51.497Z,99662.50
2022-10-22T13:44:20.938Z,99665.91
2022-10-22T13:46:50.369Z,99663.41
2022-10-22T13:49:22.752Z,99661.69
2022-10-22T13:51:53.218Z,99666.00
2022-10-22T13:54:25.867Z,99668.56
2022-10-22T13:56:55.805Z,99665.16
2022-10-22T13:59:24.355Z,99669.44
2022-10-22T14:01:55.035Z,99667.72
2022-10-22T14:04:23.714Z,99655.75
2022-10-22T14:06:52.307Z,99662.63
2022-10-22T14:09:21.745Z,99664.34
2022-10-22T14:11:50.319Z,99656.63
2022-10-22T14:14:20.351Z,99651.53
2022-10-22T14:16:49.030Z,99652.41
2022-10-22T14:19:19.474Z,99642.16
2022-10-22T14:21:49.551Z,99642.19
2022-10-22T14:24:18.150Z,99632.00
2022-10-22T14:26:46.800Z,99639.69
2022-10-22T14:29:15.899Z,99647.38
2022-10-22T14:31:46.167Z,99656.75
2022-10-22T14:34:17.168Z,99644.84
2022-10-22T14:36:45.772Z,99633.81
2022-10-22T14:39:15.207Z,99629.59
2022-10-22T14:41:44.346Z,99625.34
2022-10-22T14:44:14.605Z,99639.81
2022-10-22T14:46:44.624Z,99637.31
2022-10-22T14:49:14.688Z,99642.47
2022-10-22T14:51:43.849Z,99645.88
2022-10-22T14:54:12.420Z,99644.16
2022-10-22T14:56:40.959Z,99643.31
2022-10-22T14:59:09.401Z,99643.34
2022-10-22T15:01:39.117Z,99634.81
2022-10-22T15:04:07.529Z,99638.22
2022-10-22T15:06:37.520Z,99633.09
2022-10-22T15:09:06.258Z,99634.84
2022-10-22T15:11:34.940Z,99639.97
2022-10-22T15:14:03.780Z,99637.44
2022-10-22T15:16:32.430Z,99645.13
2022-10-22T15:19:01.219Z,99657.91
2022-10-22T15:21:29.840Z,99664.75
2022-10-22T15:24:01.009Z,99666.44
2022-10-22T15:26:29.631Z,99657.91
2022-10-22T15:28:58.230Z,99663.91
2022-10-22T15:31:47.109Z,99674.97
2022-10-22T15:34:20.639Z,99674.13
2022-10-22T15:36:49.272Z,99674.13
2022-10-22T15:39:19.466Z,99670.72
2022-10-22T15:41:49.324Z,99683.50
2022-10-22T15:44:20.335Z,99683.50
2022-10-22T15:49:23.512Z,99678.38
2022-10-22T15:51:52.190Z,99692.88
2022-10-22T15:54:24.325Z,99692.03
2022-10-22T15:56:53.369Z,99692.88
2022-10-22T15:59:22.180Z,99693.72
2022-10-22T16:01:50.988Z,99704.81
2022-10-22T16:04:20.337Z,99703.16
2022-10-22T16:06:53.789Z,99716.78
2022-10-22T16:09:25.679Z,99717.66
2022-10-22T16:11:55.473Z,99727.88
2022-10-22T16:14:24.739Z,99733.00
2022-10-22T16:16:55.976Z,99741.56
2022-10-22T16:19:26.333Z,99739.84
2022-10-22T16:21:57.135Z,99743.28
2022-10-22T16:24:27.341Z,99741.56
2022-10-22T16:26:55.901Z,99743.28
2022-10-22T16:29:24.497Z,99749.25
2022-10-22T16:31:52.959Z,99769.72
2022-10-22T16:34:21.508Z,99762.91
2022-10-22T16:39:21.401Z,99774.03
2022-10-22T16:41:51.988Z,99765.47
2022-10-22T16:44:20.618Z,99760.38
2022-10-22T16:46:50.040Z,99773.19
2022-10-22T16:49:18.811Z,99780.88
2022-10-22T16:51:47.718Z,99776.59
2022-10-22T16:54:16.413Z,99781.72
2022-10-22T16:56:45.489Z,99781.72
2022-10-22T16:59:16.842Z,99777.47
2022-10-22T17:01:45.902Z,99780.91
2022-10-22T17:04:14.850Z,99792.81
2022-10-22T17:06:43.672Z,99794.53
2022-10-22T17:09:12.317Z,99791.13
2022-10-22T17:11:42.660Z,99794.53
2022-10-22T17:14:14.044Z,99798.78
2022-10-22T17:16:45.111Z,99797.94
2022-10-22T17:19:16.538Z,99790.25
2022-10-22T17:21:45.223Z,99800.47
2022-10-22T17:24:13.744Z,99809.84
2022-10-22T17:26:43.664Z,99811.56
2022-10-22T17:29:11.869Z,99807.31
2022-10-22T17:31:41.283Z,99808.16
2022-10-22T17:34:16.984Z,99808.19
2022-10-22T17:36:46.133Z,99809.00
2022-10-22T17:39:19.335Z,99815.88
2022-10-22T17:41:48.103Z,99818.44
2022-10-22T17:44:17.463Z,99815.84
2022-10-22T17:46:46.313Z,99824.38
2022-10-22T17:49:18.439Z,99825.22
2022-10-22T17:51:47.376Z,99813.31
2022-10-22T17:54:16.302Z,99821.84
2022-10-22T17:56:45.482Z,99812.47
2022-10-22T17:59:16.303Z,99807.38
2022-10-22T18:01:47.874Z,99806.50
2022-10-22T18:04:19.962Z,99807.38
2022-10-22T18:06:49.765Z,99816.75
2022-10-22T18:09:20.214Z,99820.19
2022-10-22T18:11:50.003Z,99815.06
2022-10-22T18:14:19.281Z,99826.13
2022-10-22T18:16:48.930Z,99835.50
2022-10-22T18:19:19.110Z,99837.22
2022-10-22T18:21:48.040Z,99842.31
2022-10-22T18:24:17.952Z,99842.31
2022-10-22T18:26:46.851Z,99849.13
2022-10-22T18:29:18.265Z,99849.13
2022-10-22T18:31:47.453Z,99850.84
2022-10-22T18:34:17.752Z,99849.16
2022-10-22T18:36:50.735Z,99846.56
2022-10-22T18:39:19.763Z,99828.72
2022-10-22T18:41:48.203Z,99840.63
2022-10-22T18:44:17.033Z,99831.28
2022-10-22T18:46:45.534Z,99840.63
2022-10-22T18:49:19.672Z,99844.00
2022-10-22T18:51:53.198Z,99848.28
2022-10-22T18:54:24.407Z,99859.38
2022-10-22T18:56:54.856Z,99855.09
2022-10-22T18:59:26.776Z,99844.88
2022-10-22T19:01:57.796Z,99854.25
2022-10-22T19:04:28.484Z,99860.22
2022-10-22T19:06:58.764Z,99852.56
2022-10-22T19:09:29.051Z,99864.47
2022-10-22T19:11:57.671Z,99868.72
2022-10-22T19:14:26.141Z,99875.53
2022-10-22T19:16:55.148Z,99867.84
2022-10-22T19:19:24.607Z,99874.66
2022-10-22T19:21:53.573Z,99874.66
2022-10-22T19:24:22.210Z,99878.06
2022-10-22T19:26:53.182Z,99871.25
2022-10-22T19:29:22.511Z,99867.84
2022-10-22T19:31:52.074Z,99870.38
2022-10-22T19:34:21.006Z,99884.84
2022-10-22T19:36:52.046Z,99893.38
2022-10-22T19:39:21.065Z,99890.81
2022-10-22T19:41:49.518Z,99886.53
2022-10-22T19:44:20.028Z,99895.88
2022-10-22T19:46:48.573Z,99898.44
2022-10-22T19:49:20.376Z,99912.84
2022-10-22T19:51:51.106Z,99913.66
2022-10-22T19:54:20.837Z,99917.06
2022-10-22T19:56:50.419Z,99916.19
2022-10-22T19:59:22.976Z,99922.13
2022-10-22T20:01:51.655Z,99921.28
2022-10-22T20:04:20.997Z,99932.34
2022-10-22T20:06:49.538Z,99912.75
2022-10-22T20:09:18.357Z,99928.13
2022-10-22T20:11:47.333Z,99939.19
2022-10-22T20:14:16.058Z,99934.09
2022-10-22T20:16:46.548Z,99934.09
2022-10-22T20:19:17.283Z,99934.13
2022-10-22T20:21:48.725Z,99929.88
2022-10-22T20:24:17.514Z,99915.41
2022-10-22T20:26:47.120Z,99928.22
2022-10-22T20:29:19.224Z,99944.41
2022-10-22T20:31:49.923Z,99939.31
2022-10-22T20:34:18.608Z,99941.84
2022-10-22T20:36:48.076Z,99939.31
2022-10-22T20:39:17.033Z,99946.13
2022-10-22T20:41:45.685Z,99942.72
2022-10-22T20:44:18.048Z,99938.47
2022-10-22T20:46:47.054Z,99937.63
2022-10-22T20:49:18.674Z,99946.13
2022-10-22T20:51:47.355Z,99941.88
2022-10-22T20:54:16.655Z,99941.88
2022-10-22T20:56:45.574Z,99946.97
2022-10-22T20:59:14.244Z,99937.56
2022-10-22T21:01:45.942Z,99937.59
2022-10-22T21:04:16.733Z,99940.16
2022-10-22T21:06:45.346Z,99939.28
2022-10-22T21:09:16.686Z,99940.94
2022-10-22T21:11:45.653Z,99907.69
2022-10-22T21:14:16.900Z,99954.47
2022-10-22T21:16:46.774Z,99952.69
2022-10-22T21:19:18.294Z,99954.41
2022-10-22T21:21:47.091Z,99957.81
2022-10-22T21:24:16.154Z,99956.03
2022-10-22T21:26:45.335Z,99950.91
2022-10-22T21:29:14.407Z,99965.34
2022-10-22T21:31:43.436Z,99968.72
2022-10-22T21:34:13.715Z,99972.88
2022-10-22T21:36:44.142Z,99974.53
2022-10-22T21:39:14.332Z,99977.94
2022-10-22T21:41:42.946Z,99980.50
2022-10-22T21:44:11.573Z,99984.69
2022-10-22T21:46:40.166Z,99975.34
2022-10-22T21:49:09.242Z,99972.84
2022-10-22T21:51:38.563Z,99974.66
2022-10-22T21:54:08.674Z,99980.63
2022-10-22T21:56:37.714Z,99978.09
2022-10-22T21:59:08.392Z,99986.63
2022-10-22T22:01:37.239Z,99979.06
2022-10-22T22:04:05.905Z,99989.28
2022-10-22T22:06:35.380Z,99985.94
2022-10-22T22:09:05.363Z,99987.63
2022-10-22T22:11:35.612Z,99995.31
2022-10-22T22:14:04.355Z,99993.63
2022-10-22T22:16:35.182Z,99990.16
2022-10-22T22:19:06.964Z,99991.88
2022-10-22T22:21:37.435Z,99992.75
2022-10-22T22:24:07.640Z,99997.00
2022-10-22T22:26:37.932Z,99983.28
2022-10-22T22:29:06.687Z,100007.13
2022-10-22T22:31:37.524Z,100005.38
2022-10-22T22:34:07.944Z,100004.44
2022-10-22T22:36:39.954Z,100007.75
2022-10-22T22:39:11.862Z,100011.97
2022-10-22T22:41:42.253Z,100019.63
2022-10-22T22:44:11.187Z,100017.03
2022-10-22T22:46:40.233Z,100022.06
2022-10-22T22:49:10.152Z,100020.34
2022-10-22T22:51:38.775Z,100018.63
2022-10-22T22:54:07.342Z,100024.59
2022-10-22T22:56:36.043Z,100033.84
2022-10-22T22:59:07.041Z,100037.25
2022-10-22T23:01:38.360Z,100034.72
2022-10-22T23:04:11.775Z,100027.81
2022-10-22T23:06:41.060Z,100036.25
2022-10-22T23:09:13.140Z,100036.28
2022-10-22T23:11:44.515Z,100030.28
2022-10-22T23:14:17.004Z,100019.19
2022-10-22T23:16:47.783Z,100019.97
2022-10-22T23:19:19.894Z,100020.84
2022-10-22T23:21:51.836Z,100016.50
2022-10-22T23:24:23.065Z,100011.41
2022-10-22T23:26:53.875Z,100010.53
2022-10-22T23:29:26.365Z,100013.00
2022-10-22T23:31:55.525Z,100016.28
2022-10-22T23:34:26.802Z,100007.81
2022-10-22T23:36:57.042Z,100011.19
2022-10-22T23:39:28.282Z,100017.00
2022-10-22T23:41:57.103Z,100011.88
2022-10-22T23:44:27.526Z,100022.88
2022-10-22T23:46:56.514Z,100024.63
2022-10-22T23:49:25.218Z,100023.00
2022-10-22T23:51:53.896Z,100023.81
2022-10-22T23:54:23.430Z,100035.63
2022-10-22T23:56:51.953Z,100031.38
2022-10-22T23:59:20.741Z,100034.81
